Time;durP1;ratioP1;P1;durP2;ratioP2;P2;SDS_P1;SDS_P2;PMS_P1;PMS_P2;Temp;Humidity;BMP_temperature;BMP_pressure;BME280_temperature;BME280_humidity;BME280_pressure;Samples;Min_cycle;Max_cycle;Signal;HPM_P1;HPM_P2
2022/08/06 00:00:52;;;;;;;8.93;8.25;;;;;;;22.20;100.00;-18348.31;5092578;28;20241;-64
2022/08/06 00:03:19;;;;;;;8.80;8.15;;;;;;;22.25;100.00;-18349.50;5092562;28;20712;-63
2022/08/06 00:05:47;;;;;;;8.35;8.05;;;;;;;22.27;100.00;-18349.97;5092398;28;20215;-63
2022/08/06 00:08:14;;;;;;;8.57;8.02;;;;;;;22.17;100.00;-18347.59;5092567;28;20275;-62
2022/08/06 00:10:41;;;;;;;9.05;8.50;;;;;;;22.30;100.00;-18350.69;5092176;28;20188;-63
2022/08/06 00:13:09;;;;;;;8.98;8.48;;;;;;;22.14;100.00;-18346.88;5091898;28;20200;-62
2022/08/06 00:15:36;;;;;;;8.55;8.15;;;;;;;22.28;100.00;-18350.22;5092435;28;20199;-62
2022/08/06 00:18:03;;;;;;;8.63;8.00;;;;;;;22.33;100.00;-18351.28;5092396;28;20184;-63
2022/08/06 00:20:30;;;;;;;8.82;8.25;;;;;;;22.33;100.00;-18351.41;5092250;28;20234;-63
2022/08/06 00:22:59;;;;;;;10.38;9.35;;;;;;;22.30;100.00;-18348.69;5092286;28;20544;-62
2022/08/06 00:25:26;;;;;;;9.38;8.98;;;;;;;22.32;100.00;-18349.16;5091932;28;20266;-63
2022/08/06 00:27:53;;;;;;;9.93;8.95;;;;;;;22.38;100.00;-18352.47;5092135;28;20680;-62
2022/08/06 00:30:20;;;;;;;9.52;8.85;;;;;;;22.17;100.00;-18345.72;5091925;28;20267;-63
2022/08/06 00:32:48;;;;;;;10.15;9.55;;;;;;;21.90;100.00;-18341.06;5091770;28;20307;-63
2022/08/06 00:35:15;;;;;;;10.23;9.40;;;;;;;21.84;100.00;-18339.75;5092118;28;20206;-64
2022/08/06 00:37:42;;;;;;;9.52;9.13;;;;;;;21.93;100.00;-18341.91;5091746;28;20209;-63
2022/08/06 00:40:11;;;;;;;9.98;9.57;;;;;;;22.03;100.00;-18344.28;5091731;28;20176;-62
2022/08/06 00:42:39;;;;;;;10.30;9.65;;;;;;;22.04;100.00;-18344.50;5092104;28;20664;-62
2022/08/06 00:45:07;;;;;;;8.90;8.60;;;;;;;21.91;100.00;-17692.34;5091981;28;20188;-63
2022/08/06 00:47:35;;;;;;;9.00;8.40;;;;;;;22.04;100.00;-15104.84;5091668;28;20194;-63
2022/08/06 00:50:02;;;;;;;8.60;8.07;;;;;;;21.99;100.00;-12511.59;5091984;28;20188;-62
2022/08/06 00:52:29;;;;;;;8.57;8.07;;;;;;;21.99;100.00;-13159.84;5091558;28;20253;-63
2022/08/06 00:54:56;;;;;;;9.93;9.20;;;;;;;22.12;100.00;-12837.59;5091704;28;20188;-63
2022/08/06 00:57:24;;;;;;;9.02;8.43;;;;;;;22.12;100.00;-12189.13;5091986;28;20224;-63
2022/08/06 00:59:51;;;;;;;8.32;7.70;;;;;;;22.17;100.00;-9594.50;5093736;28;20188;-64
2022/08/06 01:02:19;;;;;;;8.65;8.20;;;;;;;22.04;100.00;-11215.25;5095860;28;20180;-63
2022/08/06 01:04:46;;;;;;;8.55;8.05;;;;;;;22.06;100.00;-10891.16;5094797;28;20572;-63
2022/08/06 01:07:13;;;;;;;7.70;7.30;;;;;;;21.75;100.00;-10887.47;5096056;28;20192;-63
2022/08/06 01:09:40;;;;;;;9.20;8.32;;;;;;;22.03;100.00;-9268.63;5095584;28;20209;-63
2022/08/06 01:12:07;;;;;;;8.85;8.40;;;;;;;22.09;100.00;-7970.69;5095536;28;20207;-63
2022/08/06 01:14:36;;;;;;;8.45;7.88;;;;;;;22.10;100.00;-5372.31;5094966;28;20259;-63
2022/08/06 01:17:06;;;;;;;7.53;7.10;;;;;;;22.08;100.00;156.16;5095793;28;20239;-63
2022/08/06 01:19:49;;;;;;;7.60;7.30;;;;;;;22.12;100.00;2761.38;5095418;28;20191;-63
2022/08/06 01:22:31;;;;;;;7.68;7.25;;;;;;;22.12;100.00;5042.53;5095423;28;20235;-63
2022/08/06 01:25:31;;;;;;;7.22;6.95;;;;;;;22.13;100.00;9283.25;5095759;28;20276;-63
2022/08/06 01:28:06;;;;;;;6.97;6.68;;;;;;;22.00;100.00;12872.25;5095603;28;20237;-62
2022/08/06 01:30:45;;;;;;;7.03;6.50;;;;;;;21.82;100.00;7972.13;5095620;28;20356;-62
2022/08/06 01:33:16;;;;;;;7.63;7.03;;;;;;;21.78;100.00;6341.31;5095422;28;20687;-63
2022/08/06 01:35:48;;;;;;;7.15;6.65;;;;;;;21.70;100.00;8622.09;5095525;28;20599;-63
2022/08/06 01:38:23;;;;;;;7.03;6.72;;;;;;;21.67;100.00;8947.63;5095428;28;20230;-64
2022/08/06 01:40:52;;;;;;;6.85;6.55;;;;;;;21.45;100.00;4056.56;5095373;28;20630;-62
2022/08/06 01:43:22;;;;;;;6.80;6.40;;;;;;;21.60;100.00;2756.19;5095125;28;20219;-62
2022/08/06 01:45:52;;;;;;;7.93;7.45;;;;;;;21.56;100.00;2755.84;5094831;28;20184;-63
2022/08/06 01:48:23;;;;;;;7.18;6.78;;;;;;;21.47;100.00;2429.47;5094943;28;20206;-62
2022/08/06 01:50:55;;;;;;;7.40;6.93;;;;;;;21.26;100.00;-1473.47;5094864;28;20195;-63
2022/08/06 01:53:29;;;;;;;7.85;7.45;;;;;;;21.27;100.00;-1473.44;5095077;28;20207;-62
2022/08/06 01:56:01;;;;;;;8.30;7.72;;;;;;;21.20;100.00;-2772.84;5094868;28;20224;-61
2022/08/06 01:58:33;;;;;;;7.22;6.93;;;;;;;21.08;100.00;-5044.88;5095007;28;20188;-61
2022/08/06 02:01:04;;;;;;;6.80;6.32;;;;;;;20.69;100.00;-6988.78;5094622;28;20188;-63
2022/08/06 02:03:36;;;;;;;7.10;6.70;;;;;;;20.68;100.00;-10551.28;5094605;28;20187;-63
2022/08/06 02:06:04;;;;;;;7.15;6.78;;;;;;;20.73;100.00;-12493.50;5094429;28;20192;-62
2022/08/06 02:08:35;;;;;;;14.27;7.43;;;;;;;20.83;100.00;-12171.34;5094395;28;20241;-62
2022/08/06 02:11:05;;;;;;;8.37;7.70;;;;;;;20.88;100.00;-11524.72;5094395;28;20184;-62
2022/08/06 02:13:36;;;;;;;8.98;7.97;;;;;;;20.87;100.00;-10553.38;5094510;28;20265;-63
2022/08/06 02:16:06;;;;;;;7.93;7.40;;;;;;;21.01;100.00;-10554.97;5094406;28;20309;-62
2022/08/06 02:18:38;;;;;;;8.60;7.75;;;;;;;20.99;100.00;-8935.09;5094950;28;20241;-63
2022/08/06 02:21:09;;;;;;;7.60;6.97;;;;;;;20.74;100.00;-10228.16;5094491;28;20184;-63
2022/08/06 02:23:37;;;;;;;11.02;8.05;;;;;;;20.81;100.00;-10552.75;5094488;28;20180;-62
2022/08/06 02:26:06;;;;;;;7.20;6.90;;;;;;;20.83;100.00;-9905.38;5094294;28;20188;-62
2022/08/06 02:28:37;;;;;;;8.27;7.50;;;;;;;21.02;100.00;-9583.34;5094360;28;20617;-63
2022/08/06 02:31:05;;;;;;;7.28;7.07;;;;;;;21.07;100.00;-8935.78;5094130;28;20188;-62
2022/08/06 02:33:32;;;;;;;7.53;6.93;;;;;;;21.10;100.00;-7963.72;5094324;28;20254;-63
2022/08/06 02:36:05;;;;;;;7.53;7.03;;;;;;;20.88;100.00;-7313.97;5094008;28;20184;-63
2022/08/06 02:38:37;;;;;;;7.47;6.97;;;;;;;20.88;100.00;-6665.66;5094193;28;20188;-63
2022/08/06 02:41:16;;;;;;;6.83;6.53;;;;;;;20.95;100.00;-5368.91;5093958;28;20249;-63
2022/08/06 02:43:51;;;;;;;10.17;7.10;;;;;;;20.85;100.00;-5368.63;5094284;28;20237;-63
2022/08/06 02:46:24;;;;;;;8.33;7.30;;;;;;;21.01;100.00;-4071.34;5094154;28;20183;-64
2022/08/06 02:48:55;;;;;;;7.10;6.80;;;;;;;20.92;100.00;-3097.72;5093638;28;20203;-63
2022/08/06 02:51:28;;;;;;;7.97;7.47;;;;;;;20.87;100.00;-5044.34;5094052;28;20627;-63
2022/08/06 02:54:00;;;;;;;7.90;7.30;;;;;;;20.93;100.00;-4720.13;5093590;28;20633;-63
2022/08/06 02:56:29;;;;;;;7.07;6.57;;;;;;;21.02;100.00;-3746.81;5093642;28;20273;-64
2022/08/06 02:59:01;;;;;;;8.18;7.68;;;;;;;20.91;100.00;-4395.69;5093439;28;20191;-62
2022/08/06 03:01:37;;;;;;;8.25;7.72;;;;;;;20.87;100.00;-6017.22;5093550;28;20203;-62
2022/08/06 03:04:07;;;;;;;8.00;7.60;;;;;;;20.79;100.00;-6341.06;5093714;28;20237;-63
2022/08/06 03:06:36;;;;;;;9.60;8.70;;;;;;;20.63;100.00;-8931.94;5093778;28;20287;-62
2022/08/06 03:09:06;;;;;;;8.57;7.93;;;;;;;20.87;100.00;-9581.88;5093245;28;20287;-62
2022/08/06 03:11:36;;;;;;;9.50;8.80;;;;;;;20.77;100.00;-8933.16;5093389;28;20220;-62
2022/08/06 03:14:08;;;;;;;9.40;8.73;;;;;;;20.80;100.00;-9581.25;5093296;28;20235;-63
2022/08/06 03:16:37;;;;;;;8.60;8.03;;;;;;;20.77;100.00;-8933.16;5093377;28;20180;-63
2022/08/06 03:19:05;;;;;;;9.13;8.43;;;;;;;20.91;100.00;-8934.41;5093481;28;20241;-63
2022/08/06 03:21:35;;;;;;;9.55;8.90;;;;;;;20.95;100.00;-9906.56;5092581;28;20192;-63
2022/08/06 03:24:04;;;;;;;9.82;9.00;;;;;;;20.96;100.00;-7638.59;5093036;28;20249;-61
2022/08/06 03:26:33;;;;;;;9.18;8.77;;;;;;;21.10;100.00;-7639.53;5093236;28;20188;-64
2022/08/06 03:29:01;;;;;;;9.93;9.23;;;;;;;21.23;100.00;-7316.09;5092930;28;20283;-62
2022/08/06 03:31:33;;;;;;;9.70;9.20;;;;;;;21.19;100.00;-6342.91;5092875;28;20275;-63
2022/08/06 03:34:01;;;;;;;18.50;12.85;;;;;;;21.60;100.00;-6344.72;5092725;28;20323;-63
2022/08/06 03:36:29;;;;;;;13.18;11.88;;;;;;;22.01;100.00;481.19;5093119;28;20180;-62
2022/08/06 03:38:58;;;;;;;13.50;12.68;;;;;;;21.98;100.00;7648.81;5092733;28;20636;-63
2022/08/06 03:41:26;;;;;;;14.77;13.75;;;;;;;22.09;100.00;8629.63;5092873;28;20188;-62
2022/08/06 03:43:54;;;;;;;13.32;11.98;;;;;;;22.11;100.00;7325.03;5093121;28;20265;-62
2022/08/06 03:46:27;;;;;;;16.23;13.60;;;;;;;22.40;100.00;10268.50;5093139;28;20256;-62
2022/08/06 03:48:59;;;;;;;12.95;12.05;;;;;;;22.59;100.00;19106.47;5092592;28;20184;-62
2022/08/06 03:51:28;;;;;;;15.05;13.27;;;;;;;22.67;100.00;24684.25;5092518;28;20257;-63
2022/08/06 03:53:59;;;;;;;13.75;12.65;;;;;;;22.88;100.00;30279.69;5092487;28;20290;-63
2022/08/06 03:56:30;;;;;;;17.27;15.50;;;;;;;23.15;100.00;26677.25;5092554;28;20302;-61
2022/08/06 03:59:02;;;;;;;15.70;14.52;;;;;;;23.36;100.00;26687.25;5092362;28;20218;-62
2022/08/06 04:01:33;;;;;;;17.15;15.23;;;;;;;23.53;100.00;33608.69;5092313;28;20226;-63
2022/08/06 04:04:03;;;;;;;19.90;17.40;;;;;;;23.81;100.00;32306.97;5092164;28;20184;-63
2022/08/06 04:06:31;;;;;;;19.65;16.80;;;;;;;23.93;100.00;36271.41;5092607;28;20609;-63
2022/08/06 04:09:00;;;;;;;18.73;16.90;;;;;;;24.12;100.00;42561.97;5092119;28;20224;-63
2022/08/06 04:11:28;;;;;;;19.40;17.65;;;;;;;24.31;100.00;46216.47;5092165;28;20222;-62
2022/08/06 04:13:55;;;;;;;18.45;16.27;;;;;;;24.57;100.00;58186.19;5092246;28;20267;-62
2022/08/06 04:16:28;;;;;;;18.73;16.80;;;;;;;24.78;100.00;69201.09;5092445;28;20636;-63
2022/08/06 04:18:56;;;;;;;17.65;16.05;;;;;;;25.01;100.00;78922.56;5092066;28;20196;-62
2022/08/06 04:21:26;;;;;;;20.85;18.10;;;;;;;24.99;100.00;83609.53;5092415;28;20650;-63
2022/08/06 04:23:53;;;;;;;18.45;16.67;;;;;;;25.30;100.00;102484.69;5092321;28;20593;-63
2022/08/06 04:26:23;;;;;;;18.80;16.88;;;;;;;25.65;100.00;126241.75;5092020;28;20180;-61
2022/08/06 04:28:55;;;;;;;16.73;15.35;;;;;;;25.77;100.00;136473.13;5092367;28;20620;-62
2022/08/06 04:31:23;;;;;;;18.13;16.58;;;;;;;25.91;100.00;152557.69;5092364;28;20594;-62
2022/08/06 04:33:53;;;;;;;20.30;16.30;;;;;;;26.11;100.00;152606.22;5090823;28;20212;-63
2022/08/06 04:36:20;;;;;;;17.13;15.80;;;;;;;26.42;100.00;152684.28;5092485;28;20190;-62
2022/08/06 04:38:49;;;;;;;18.73;17.02;;;;;;;26.55;100.00;152718.81;5091850;28;20184;-63
2022/08/06 04:41:16;;;;;;;19.95;16.27;;;;;;;26.73;100.00;152763.56;5091787;28;20187;-63
2022/08/06 04:43:44;;;;;;;18.60;16.65;;;;;;;26.70;100.00;152755.88;5091923;28;20196;-62
2022/08/06 04:46:12;;;;;;;21.85;15.65;;;;;;;26.62;100.00;152736.69;5091700;28;20191;-62
2022/08/06 04:48:39;;;;;;;15.93;14.60;;;;;;;26.64;100.00;152741.84;5092034;28;20612;-65
2022/08/06 04:51:07;;;;;;;14.57;13.45;;;;;;;26.48;100.00;152699.63;5092019;28;20176;-62
2022/08/06 04:53:38;;;;;;;15.50;14.18;;;;;;;26.87;100.00;152798.13;5091588;28;20208;-62
2022/08/06 04:56:07;;;;;;;14.68;13.57;;;;;;;26.76;100.00;152772.53;5091628;28;20188;-63
2022/08/06 04:58:35;;;;;;;14.95;13.77;;;;;;;26.98;100.00;152826.28;5091926;28;20324;-61
2022/08/06 05:01:02;;;;;;;14.15;12.85;;;;;;;27.37;100.00;152926.03;5091590;28;20275;-62
2022/08/06 05:03:31;;;;;;;14.32;13.25;;;;;;;27.48;100.00;152952.97;5091823;28;20229;-63
2022/08/06 05:06:04;;;;;;;15.75;13.45;;;;;;;27.75;100.00;153020.81;5091498;28;20184;-62
2022/08/06 05:08:34;;;;;;;15.18;12.32;;;;;;;27.82;100.00;153040.00;5091461;28;20284;-62
2022/08/06 05:11:04;;;;;;;15.07;13.57;;;;;;;27.92;100.00;153064.31;5091437;28;20256;-63
2022/08/06 05:13:37;;;;;;;18.10;14.73;;;;;;;27.73;100.00;153015.66;5091310;28;20331;-62
2022/08/06 05:16:08;;;;;;;19.35;14.90;;;;;;;27.94;100.00;153070.69;5091800;28;20188;-63
2022/08/06 05:18:39;;;;;;;16.40;12.50;;;;;;;27.89;100.00;153056.59;5091486;28;20184;-62
2022/08/06 05:21:09;;;;;;;12.30;11.48;;;;;;;28.11;100.00;153114.25;5091524;28;20188;-62
2022/08/06 05:23:41;;;;;;;14.57;12.30;;;;;;;28.27;100.00;153152.63;5091429;28;20612;-62
2022/08/06 05:26:09;;;;;;;11.68;10.88;;;;;;;28.46;100.00;153201.31;5091478;28;20224;-62
2022/08/06 05:28:39;;;;;;;11.95;11.32;;;;;;;28.55;100.00;153224.38;5090205;28;20191;-62
2022/08/06 05:31:07;;;;;;;11.95;10.93;;;;;;;28.78;100.00;153282.00;5091364;28;20192;-63
2022/08/06 05:33:37;;;;;;;12.35;11.35;;;;;;;29.20;100.00;153389.59;5091409;28;20184;-62
2022/08/06 05:36:06;;;;;;;10.82;10.18;;;;;;;29.67;100.00;153508.75;5091535;28;20207;-62
2022/08/06 05:38:35;;;;;;;11.15;10.38;;;;;;;30.33;100.00;153676.72;5091558;28;20667;-62
2022/08/06 05:41:02;;;;;;;11.57;10.50;;;;;;;30.67;100.00;153762.66;5091149;28;20180;-62
2022/08/06 05:43:29;;;;;;;10.95;10.25;;;;;;;31.07;100.00;153863.94;5091281;28;20200;-62
2022/08/06 05:46:02;;;;;;;11.45;10.05;;;;;;;30.93;100.00;153826.75;5093045;28;20188;-61
2022/08/06 05:48:35;;;;;;;10.80;9.90;;;;;;;30.75;100.00;153781.88;5094966;28;20196;-62
2022/08/06 05:51:08;;;;;;;9.98;9.48;;;;;;;30.87;100.00;153812.63;5095139;28;20649;-62
2022/08/06 05:53:39;;;;;;;11.05;9.70;;;;;;;30.96;100.00;153834.41;5095060;28;20618;-63
2022/08/06 05:56:13;;;;;;;11.85;9.38;;;;;;;31.18;100.00;153890.91;5094696;28;20184;-62
2022/08/06 05:58:46;;;;;;;18.17;9.52;;;;;;;31.14;100.00;153881.94;5094818;28;20187;-63
2022/08/06 06:01:15;;;;;;;10.52;9.43;;;;;;;31.20;100.00;153896.00;5094739;28;20184;-62
2022/08/06 06:03:44;;;;;;;9.10;8.68;;;;;;;31.35;100.00;153933.22;5094995;28;20184;-62
2022/08/06 06:06:13;;;;;;;9.27;8.45;;;;;;;31.57;100.00;153990.94;5095318;28;20224;-63
2022/08/06 06:08:41;;;;;;;10.43;8.60;;;;;;;31.69;100.00;154020.50;5094990;28;20546;-62
2022/08/06 06:11:09;;;;;;;8.68;7.82;;;;;;;31.85;100.00;154061.53;5094400;28;20237;-62
2022/08/06 06:13:39;;;;;;;26.30;10.82;;;;;;;31.83;100.00;154056.38;5094247;28;20238;-63
2022/08/06 06:16:25;;;;;;;18.02;10.20;;;;;;;31.64;100.00;154008.94;5094348;28;20188;-62
2022/08/06 06:19:03;;;;;;;10.13;8.93;;;;;;;31.79;100.00;154046.13;5094710;28;20700;-62
2022/08/06 06:21:37;;;;;;;14.80;8.52;;;;;;;31.70;100.00;154024.31;5094392;28;20239;-62
2022/08/06 06:24:13;;;;;;;8.23;7.57;;;;;;;31.95;100.00;154085.91;5094564;28;20638;-62
2022/08/06 06:26:46;;;;;;;9.10;7.15;;;;;;;32.41;100.00;154202.72;5094650;28;20673;-62
2022/08/06 06:29:20;;;;;;;8.20;7.10;;;;;;;32.66;100.00;154266.94;5094384;28;20184;-62
2022/08/06 06:32:01;;;;;;;7.22;6.50;;;;;;;32.99;100.00;154351.66;5094514;28;20722;-63
2022/08/06 06:34:41;;;;;;;7.50;7.10;;;;;;;33.48;100.00;154476.22;5094054;28;20578;-62
2022/08/06 06:37:20;;;;;;;7.80;7.05;;;;;;;33.87;100.00;154573.84;5094156;28;20227;-61
2022/08/06 06:39:56;;;;;;;7.72;6.93;;;;;;;33.83;100.00;154564.88;5093945;28;20253;-62
2022/08/06 06:42:28;;;;;;;7.35;6.95;;;;;;;33.94;100.00;154593.16;5094251;28;20183;-62
2022/08/06 06:45:07;;;;;;;8.65;7.90;;;;;;;33.88;100.00;154577.72;5094214;28;20227;-62
2022/08/06 06:47:44;;;;;;;11.63;8.40;;;;;;;33.80;100.00;154557.19;5093784;28;20237;-62
2022/08/06 06:50:18;;;;;;;11.52;8.50;;;;;;;33.08;100.00;154373.47;5093922;28;20234;-62
2022/08/06 06:52:48;;;;;;;20.00;8.73;;;;;;;33.45;100.00;154467.22;5093678;28;20188;-62
2022/08/06 06:55:22;;;;;;;14.02;8.63;;;;;;;33.22;100.00;154409.47;5093897;28;20710;-62
2022/08/06 06:58:07;;;;;;;12.07;9.40;;;;;;;33.44;100.00;154464.69;5092636;28;20630;-62
2022/08/06 07:00:35;;;;;;;11.23;8.65;;;;;;;33.42;100.00;154459.53;5093562;28;20627;-63
2022/08/06 07:03:05;;;;;;;9.43;8.63;;;;;;;33.09;100.00;154376.06;5093871;28;20225;-62
2022/08/06 07:05:35;;;;;;;8.95;8.20;;;;;;;32.46;100.00;154215.56;5093905;28;20558;-63
2022/08/06 07:08:05;;;;;;;10.80;8.38;;;;;;;32.38;100.00;154195.03;5093342;28;20212;-62
2022/08/06 07:10:33;;;;;;;8.80;8.00;;;;;;;32.13;100.00;154132.13;5093382;28;20198;-62
2022/08/06 07:13:02;;;;;;;8.93;8.40;;;;;;;32.09;100.00;154123.16;5093450;28;20192;-61
2022/08/06 07:15:31;;;;;;;9.18;8.15;;;;;;;31.87;100.00;154065.41;5093346;28;20204;-63
2022/08/06 07:18:00;;;;;;;14.02;9.23;;;;;;;32.18;100.00;154144.97;5093181;28;20191;-62
2022/08/06 07:20:31;;;;;;;9.07;8.27;;;;;;;32.14;100.00;154134.69;5093472;28;20192;-62
2022/08/06 07:23:02;;;;;;;7.70;7.15;;;;;;;32.40;100.00;154200.16;5093172;28;20711;-62
2022/08/06 07:25:31;;;;;;;7.90;7.45;;;;;;;32.35;100.00;154187.31;5093049;28;20176;-62
2022/08/06 07:27:58;;;;;;;6.78;6.38;;;;;;;32.33;100.00;154183.47;5093076;28;20180;-62
2022/08/06 07:30:25;;;;;;;7.53;6.88;;;;;;;31.55;100.00;153984.56;5093089;28;20638;-63
2022/08/06 07:32:53;;;;;;;7.07;6.60;;;;;;;31.60;100.00;153997.41;5093238;28;20643;-62
2022/08/06 07:35:21;;;;;;;7.03;6.68;;;;;;;31.59;100.00;153996.09;5092814;28;20253;-62
2022/08/06 07:37:54;;;;;;;8.35;7.75;;;;;;;31.26;100.00;153912.72;5092815;28;20196;-62
2022/08/06 07:40:26;;;;;;;7.60;7.40;;;;;;;31.18;100.00;153892.19;5093264;28;20708;-61
2022/08/06 07:42:57;;;;;;;8.45;7.75;;;;;;;31.05;100.00;153858.84;5092872;28;20227;-62
2022/08/06 07:45:28;;;;;;;6.80;6.40;;;;;;;30.73;100.00;153776.72;5093034;28;20180;-62
2022/08/06 07:47:57;;;;;;;7.05;6.80;;;;;;;30.67;100.00;153762.66;5092921;28;20180;-62
2022/08/06 07:50:27;;;;;;;7.50;7.20;;;;;;;30.52;100.00;153722.88;5092596;28;20184;-62
2022/08/06 07:52:57;;;;;;;7.18;6.88;;;;;;;30.45;100.00;153706.22;5091237;28;20184;-63
2022/08/06 07:55:25;;;;;;;7.43;7.13;;;;;;;30.35;100.00;153680.53;5092429;28;20223;-62
2022/08/06 07:57:54;;;;;;;7.75;7.25;;;;;;;29.99;100.00;153588.28;5091251;28;20184;-63
2022/08/06 08:00:22;;;;;;;7.22;6.90;;;;;;;29.94;100.00;153578.03;5092702;28;20237;-62
2022/08/06 08:08:17;;;;;;;8.10;7.60;;;;;;;29.57;100.00;153483.19;5092510;28;20596;-63
2022/08/06 08:10:45;;;;;;;7.93;7.13;;;;;;;29.43;100.00;153448.56;5092235;28;20249;-63
2022/08/06 08:13:13;;;;;;;8.45;7.90;;;;;;;29.44;100.00;153449.88;5090925;28;20234;-63
2022/08/06 08:15:40;;;;;;;8.38;7.93;;;;;;;29.65;100.00;153502.38;5090939;28;20208;-62
2022/08/06 08:18:08;;;;;;;8.68;8.15;;;;;;;29.54;100.00;153474.16;5092201;28;20192;-62
2022/08/06 08:20:36;;;;;;;8.27;7.75;;;;;;;29.47;100.00;153458.81;5092436;28;20233;-61
2022/08/06 08:23:06;;;;;;;8.00;7.47;;;;;;;29.72;100.00;153521.59;5092354;28;20658;-63
2022/08/06 08:25:34;;;;;;;7.32;7.03;;;;;;;29.69;100.00;153512.63;5091998;28;20184;-63
2022/08/06 08:28:01;;;;;;;9.07;8.18;;;;;;;29.83;100.00;153548.50;5092020;28;20193;-62
2022/08/06 08:30:28;;;;;;;8.35;7.88;;;;;;;30.27;100.00;153660.03;5092269;28;20641;-63
2022/08/06 08:32:56;;;;;;;7.57;7.25;;;;;;;29.91;100.00;153569.06;5090865;28;20188;-63
2022/08/06 08:35:23;;;;;;;7.55;7.03;;;;;;;29.32;100.00;153420.38;5091850;28;20207;-62
2022/08/06 08:37:50;;;;;;;6.80;6.40;;;;;;;29.27;100.00;153406.25;5092293;28;20184;-63
2022/08/06 08:40:17;;;;;;;7.05;6.65;;;;;;;28.99;100.00;153335.78;5090905;28;20184;-62
2022/08/06 08:42:53;;;;;;;6.20;5.80;;;;;;;28.85;100.00;153299.97;5091926;28;20218;-62
2022/08/06 08:45:20;;;;;;;6.60;6.22;;;;;;;28.74;100.00;153271.75;5091956;28;20186;-63
2022/08/06 08:47:51;;;;;;;6.47;5.63;;;;;;;28.68;100.00;153256.38;5092070;28;20188;-62
2022/08/06 08:50:20;;;;;;;6.72;6.20;;;;;;;28.55;100.00;153224.38;5091892;28;20184;-62
2022/08/06 08:52:49;;;;;;;6.63;6.32;;;;;;;28.36;100.00;153176.97;5090520;28;20234;-62
2022/08/06 08:55:21;;;;;;;6.65;5.90;;;;;;;28.31;100.00;153162.88;5091754;28;20208;-63
2022/08/06 08:57:52;;;;;;;6.05;5.85;;;;;;;28.35;100.00;153174.41;5090535;28;20249;-63
2022/08/06 09:00:20;;;;;;;6.85;6.50;;;;;;;28.04;100.00;153095.03;5091829;28;20540;-62
2022/08/06 09:02:47;;;;;;;6.20;5.90;;;;;;;28.10;100.00;153110.41;5091617;28;20198;-62
2022/08/06 09:05:14;;;;;;;6.10;5.50;;;;;;;28.04;100.00;153095.03;5091926;28;20187;-63
2022/08/06 09:07:41;;;;;;;6.57;6.05;;;;;;;28.30;100.00;153161.66;5091972;28;20607;-63
2022/08/06 09:10:10;;;;;;;6.78;6.38;;;;;;;28.47;100.00;153203.88;5091719;28;20180;-61
2022/08/06 09:12:37;;;;;;;5.82;5.53;;;;;;;28.37;100.00;153179.56;5091734;28;20184;-63
2022/08/06 09:15:07;;;;;;;5.60;5.40;;;;;;;28.39;100.00;153184.66;5091497;28;20234;-62
2022/08/06 09:17:35;;;;;;;5.93;5.68;;;;;;;28.33;100.00;153169.31;5091833;28;20218;-62
2022/08/06 09:20:02;;;;;;;5.78;5.45;;;;;;;28.40;100.00;153185.94;5092376;28;20554;-61
2022/08/06 09:22:29;;;;;;;5.85;5.65;;;;;;;28.37;100.00;153179.56;5094133;28;20238;-63
2022/08/06 09:24:56;;;;;;;5.93;5.53;;;;;;;28.40;100.00;153187.22;5095478;28;20180;-62
2022/08/06 09:27:23;;;;;;;6.30;5.80;;;;;;;28.44;100.00;153196.16;5095671;28;20253;-63
2022/08/06 09:29:52;;;;;;;5.10;4.90;;;;;;;28.65;100.00;153248.66;5095369;28;20246;-61
2022/08/06 09:32:41;;;;;;;6.10;5.55;;;;;;;29.15;100.00;153375.53;5095303;28;20192;-62
2022/08/06 09:35:19;;;;;;;4.82;4.63;;;;;;;29.65;100.00;153502.38;5095404;28;20277;-62
2022/08/06 09:37:46;;;;;;;5.30;5.10;;;;;;;29.91;100.00;153569.06;5095116;28;20188;-62
2022/08/06 09:40:15;;;;;;;4.90;4.70;;;;;;;29.99;100.00;153589.56;5095475;28;20188;-62
2022/08/06 09:42:44;;;;;;;5.10;4.90;;;;;;;29.70;100.00;153516.50;5095023;28;20249;-63
2022/08/06 09:45:13;;;;;;;4.55;4.43;;;;;;;29.58;100.00;153484.47;5095417;28;20597;-62
2022/08/06 09:47:42;;;;;;;4.80;4.60;;;;;;;29.36;100.00;153430.66;5095320;28;20596;-61
2022/08/06 09:50:10;;;;;;;5.00;4.90;;;;;;;29.38;100.00;153435.75;5094921;28;20188;-62
2022/08/06 09:52:37;;;;;;;4.78;4.47;;;;;;;29.48;100.00;153460.09;5094912;28;20195;-62
2022/08/06 09:55:05;;;;;;;5.10;4.93;;;;;;;29.17;100.00;153381.91;5094929;28;20244;-62
2022/08/06 09:57:44;;;;;;;4.40;4.30;;;;;;;29.17;100.00;153380.63;5094895;28;20237;-62
2022/08/06 10:00:12;;;;;;;4.80;4.40;;;;;;;29.06;100.00;153353.75;5094722;28;20184;-62
2022/08/06 10:02:40;;;;;;;5.28;5.07;;;;;;;29.11;100.00;153366.50;5094739;28;20188;-62
2022/08/06 10:05:10;;;;;;;5.07;4.80;;;;;;;29.01;100.00;153340.94;5094911;28;20184;-62
2022/08/06 10:07:38;;;;;;;6.70;6.30;;;;;;;28.91;100.00;153315.31;5094748;28;20249;-63
2022/08/06 10:10:07;;;;;;;6.43;5.90;;;;;;;28.90;100.00;153312.72;5094841;28;20211;-62
2022/08/06 10:12:34;;;;;;;5.18;5.00;;;;;;;28.90;100.00;153314.00;5094832;28;20612;-64
2022/08/06 10:15:01;;;;;;;5.50;5.30;;;;;;;28.88;100.00;153307.63;5094234;28;20235;-62
2022/08/06 10:17:29;;;;;;;5.78;5.57;;;;;;;29.03;100.00;153346.03;5094426;28;20194;-62
2022/08/06 10:20:07;;;;;;;5.90;5.50;;;;;;;29.00;100.00;153339.66;5094518;28;20180;-61
2022/08/06 10:22:36;;;;;;;5.65;5.45;;;;;;;29.03;100.00;153346.03;5094505;28;20223;-64
2022/08/06 10:25:05;;;;;;;5.78;5.47;;;;;;;28.97;100.00;153331.97;5094329;28;20184;-61
2022/08/06 10:27:34;;;;;;;5.88;5.47;;;;;;;29.04;100.00;153349.88;5094254;28;20184;-62
2022/08/06 10:30:05;;;;;;;5.45;5.25;;;;;;;29.01;100.00;153340.94;5094465;28;20562;-62
2022/08/06 10:32:38;;;;;;;6.20;6.00;;;;;;;29.26;100.00;153403.69;5094770;28;20603;-64
2022/08/06 10:35:08;;;;;;;5.97;5.78;;;;;;;29.38;100.00;153435.75;5093990;28;20222;-62
2022/08/06 10:37:41;;;;;;;6.47;6.07;;;;;;;29.35;100.00;153426.78;5094440;28;20181;-62
2022/08/06 10:40:12;;;;;;;6.10;5.90;;;;;;;29.48;100.00;153461.41;5094161;28;20230;-62
2022/08/06 10:42:39;;;;;;;5.75;5.55;;;;;;;29.37;100.00;153433.19;5094221;28;20724;-63
2022/08/06 10:45:08;;;;;;;5.70;5.40;;;;;;;29.18;100.00;153383.19;5094239;28;20265;-62
2022/08/06 10:47:36;;;;;;;5.60;5.40;;;;;;;29.27;100.00;153406.25;5093800;28;20237;-63
2022/08/06 10:50:04;;;;;;;5.03;4.68;;;;;;;29.29;100.00;153411.41;5094157;28;20189;-62
2022/08/06 10:52:32;;;;;;;5.38;5.18;;;;;;;29.44;100.00;153449.88;5094116;28;20271;-62
2022/08/06 10:55:01;;;;;;;6.15;5.75;;;;;;;29.45;100.00;153452.44;5093572;28;20188;-63
2022/08/06 10:57:28;;;;;;;5.00;4.80;;;;;;;29.58;100.00;153484.47;5093592;28;20194;-63
2022/08/06 10:59:56;;;;;;;5.53;5.28;;;;;;;29.63;100.00;153497.22;5093462;28;20237;-63
2022/08/06 11:02:37;;;;;;;6.18;5.88;;;;;;;29.67;100.00;153508.75;5093556;28;20651;-62
2022/08/06 11:05:08;;;;;;;5.80;5.45;;;;;;;29.39;100.00;153437.03;5093957;28;20192;-62
2022/08/06 11:07:59;;;;;;;5.57;5.38;;;;;;;29.39;100.00;153438.31;5093357;28;20180;-62
2022/08/06 11:10:48;;;;;;;6.13;5.80;;;;;;;29.53;100.00;153472.94;5093342;28;20180;-62
2022/08/06 11:13:25;;;;;;;5.63;5.28;;;;;;;29.48;100.00;153461.41;5093678;28;20293;-62
2022/08/06 11:15:54;;;;;;;6.10;5.80;;;;;;;29.32;100.00;153420.38;5093162;28;20199;-62
2022/08/06 11:18:21;;;;;;;6.20;6.00;;;;;;;29.25;100.00;153401.09;5093462;28;20192;-62
2022/08/06 11:20:50;;;;;;;5.70;5.40;;;;;;;29.27;100.00;153407.53;5093513;28;20680;-62
2022/08/06 11:23:26;;;;;;;6.13;5.93;;;;;;;29.08;100.00;153358.84;5093183;28;20188;-62
2022/08/06 11:25:56;;;;;;;5.70;5.50;;;;;;;29.04;100.00;153348.59;5093103;28;20187;-62
2022/08/06 11:28:56;;;;;;;6.38;6.07;;;;;;;29.01;100.00;153342.22;5093027;28;20631;-62
2022/08/06 11:31:49;;;;;;;6.40;6.03;;;;;;;28.97;100.00;153330.69;5093007;28;20635;-62
2022/08/06 11:34:18;;;;;;;6.60;6.38;;;;;;;29.02;100.00;153343.50;5083308;28;20196;-64
2022/08/06 11:36:48;;;;;;;6.18;5.88;;;;;;;28.92;100.00;153317.88;5093098;28;20318;-62